BWI weather

Baltimore/Washington International Thurgood Marshall Airport
Baltimore, Maryland, United States

Public forecast

Using degrees Fahrenheit for public forecast. Weather courtesy of forecast.io.

METAR (pilot weather report)

Retrieved 2018/10/17 02:54 UTC (14 minutes ago):

KBWI 170254Z 00000KT 10SM SCT050 OVC160 11/08 A3010 RMK AO2 SLP193 T01110083 56004

TAF (pilot weather forecast)

Forecast is more than 12 hours old.

Retrieved 2018/10/16 00:40 UTC (1 day ago):

TAF KBWI 162338Z 1700/1806 VRB03KT P6SM BKN150 OVC250 FM170200 VRB04KT P6SM BKN035 OVC130 FM170800 28005KT P6SM BKN200 FM171300 28010KT P6SM SCT200 FM171700 28015G25KT P6SM FEW250 FM180300 31010G20KT P6SM FEW250